createdAt,value
2019-01-10T00:02:58.697Z,10.30
2019-01-10T00:08:02.777Z,8.63
2019-01-10T00:13:06.821Z,8.03
2019-01-10T00:18:10.870Z,11.33
2019-01-10T00:23:15.206Z,10.30
2019-01-10T00:28:19.946Z,8.13
2019-01-10T00:33:24.026Z,8.37
2019-01-10T00:38:28.065Z,8.43
2019-01-10T00:43:32.109Z,10.07
2019-01-10T00:48:36.764Z,8.90
2019-01-10T00:53:41.221Z,11.43
2019-01-10T00:58:45.609Z,7.50
2019-01-10T01:03:49.979Z,10.07
2019-01-10T01:08:54.358Z,7.90
2019-01-10T01:13:58.739Z,10.20
2019-01-10T01:19:02.817Z,8.97
2019-01-10T01:24:07.139Z,9.70
2019-01-10T01:29:11.490Z,6.70
2019-01-10T01:34:15.827Z,10.83
2019-01-10T01:39:20.201Z,9.43
2019-01-10T01:44:24.575Z,7.63
2019-01-10T01:49:30.371Z,7.57
2019-01-10T01:54:34.716Z,9.43
2019-01-10T01:59:38.798Z,9.97
2019-01-10T02:04:43.432Z,7.40
2019-01-10T02:09:48.081Z,8.43
2019-01-10T02:14:52.463Z,7.97
2019-01-10T02:19:56.544Z,7.07
2019-01-10T02:25:00.711Z,7.20
2019-01-10T02:30:08.045Z,9.20
2019-01-10T02:35:12.720Z,9.33
2019-01-10T02:40:17.165Z,7.10
2019-01-10T02:45:21.535Z,10.57
2019-01-10T02:50:25.979Z,6.60
2019-01-10T02:55:30.686Z,7.93
2019-01-10T03:00:35.176Z,7.40
2019-01-10T03:05:39.255Z,9.65
2019-01-10T03:10:43.902Z,7.47
2019-01-10T03:15:47.989Z,12.37
2019-01-10T03:20:52.698Z,18.20
2019-01-10T03:25:57.185Z,9.93
2019-01-10T03:31:01.271Z,9.20
2019-01-10T03:36:05.737Z,13.98
2019-01-10T03:41:10.117Z,12.50
2019-01-10T03:46:14.534Z,11.27
2019-01-10T03:51:18.621Z,9.23
2019-01-10T03:56:22.661Z,11.20
2019-01-10T04:01:27.006Z,10.77
2019-01-10T04:06:31.094Z,13.77
2019-01-10T04:11:35.479Z,7.33
2019-01-10T04:16:39.811Z,7.80
2019-01-10T04:21:43.894Z,12.23
2019-01-10T04:26:48.641Z,8.63
2019-01-10T04:31:53.012Z,12.70
2019-01-10T04:36:57.097Z,9.80
2019-01-10T04:42:01.766Z,14.63
2019-01-10T04:47:05.866Z,11.63
2019-01-10T04:52:10.860Z,11.93
2019-01-10T04:57:15.235Z,7.47
2019-01-10T05:02:19.935Z,8.50
2019-01-10T05:07:24.293Z,9.93
2019-01-10T05:12:28.381Z,9.63
2019-01-10T05:17:32.717Z,7.75
2019-01-10T05:22:36.806Z,9.13
2019-01-10T05:27:41.143Z,8.87
2019-01-10T05:32:45.220Z,9.57
2019-01-10T05:37:49.268Z,7.57
2019-01-10T05:42:53.652Z,9.73
2019-01-10T05:47:57.975Z,13.30
2019-01-10T05:53:02.354Z,10.60
2019-01-10T05:58:06.444Z,8.90
2019-01-10T06:03:10.496Z,13.90
2019-01-10T06:08:15.167Z,11.40
2019-01-10T06:13:19.252Z,14.63
2019-01-10T06:18:23.298Z,13.27
2019-01-10T06:23:27.654Z,13.90
2019-01-10T06:28:31.694Z,10.43
2019-01-10T06:33:35.743Z,14.77
2019-01-10T06:38:40.099Z,13.83
2019-01-10T06:43:44.741Z,11.43
2019-01-10T06:48:49.112Z,14.13
2019-01-10T06:53:53.207Z,14.13
2019-01-10T06:58:57.590Z,11.85
2019-01-10T07:04:01.971Z,13.40
2019-01-10T07:09:08.931Z,14.03
2019-01-10T07:14:13.016Z,11.70
2019-01-10T07:19:23.679Z,11.77
2019-01-10T07:24:28.056Z,14.17
2019-01-10T07:29:32.138Z,13.10
2019-01-10T07:34:36.187Z,11.20
2019-01-10T07:39:40.867Z,12.10
2019-01-10T07:44:44.905Z,12.17
2019-01-10T07:49:49.190Z,13.70
2019-01-10T07:54:53.581Z,13.17
2019-01-10T07:59:57.669Z,12.87
2019-01-10T08:05:02.277Z,11.10
2019-01-10T08:10:10.312Z,13.87
2019-01-10T08:15:19.103Z,13.60
2019-01-10T08:20:23.190Z,13.00
2019-01-10T08:25:27.559Z,12.40
2019-01-10T08:30:31.997Z,12.30
2019-01-10T08:35:36.049Z,11.07
2019-01-10T08:40:40.098Z,16.63
2019-01-10T08:45:44.402Z,16.90
2019-01-10T08:50:48.458Z,12.30
2019-01-10T08:55:52.785Z,16.70
2019-01-10T09:00:56.890Z,18.17
2019-01-10T09:06:08.013Z,11.13
2019-01-10T09:11:07.099Z,15.20
2019-01-10T09:16:11.441Z,14.57
2019-01-10T09:21:16.030Z,12.23
2019-01-10T09:26:20.500Z,20.57
2019-01-10T09:31:24.573Z,14.27
2019-01-10T09:36:28.991Z,13.37
2019-01-10T09:41:33.105Z,14.80
2019-01-10T09:46:37.158Z,17.33
2019-01-10T09:51:41.491Z,17.40
2019-01-10T09:56:45.574Z,13.33
2019-01-10T10:01:49.621Z,13.17
2019-01-10T10:06:54.018Z,13.30
2019-01-10T10:11:58.435Z,17.63
2019-01-10T10:17:02.775Z,14.73
2019-01-10T10:22:06.932Z,13.70
2019-01-10T10:27:11.274Z,17.77
2019-01-10T10:32:15.360Z,14.37
2019-01-10T10:37:19.702Z,17.00
2019-01-10T10:42:24.102Z,17.93
2019-01-10T10:47:28.188Z,14.03
2019-01-10T10:52:32.230Z,14.37
2019-01-10T10:57:36.276Z,14.93
2019-01-10T11:02:40.641Z,13.97
2019-01-10T11:07:44.810Z,13.10
2019-01-10T11:12:49.090Z,10.80
2019-01-10T11:17:53.563Z,13.83
2019-01-10T11:22:57.650Z,12.17
2019-01-10T11:28:04.329Z,12.98
2019-01-10T11:33:08.475Z,15.63
2019-01-10T11:38:12.523Z,14.63
2019-01-10T11:43:17.149Z,15.17
2019-01-10T11:48:40.581Z,11.40
2019-01-10T11:53:44.912Z,13.10
2019-01-10T11:58:48.999Z,13.47
2019-01-10T12:03:53.351Z,14.83
2019-01-10T12:08:57.442Z,15.37
2019-01-10T12:14:01.807Z,12.82
2019-01-10T12:19:05.855Z,10.47
2019-01-10T12:24:10.195Z,11.83
2019-01-10T12:29:14.820Z,9.80
2019-01-10T12:34:19.454Z,8.07
2019-01-10T12:39:23.543Z,8.33
2019-01-10T12:44:29.569Z,8.03
2019-01-10T12:49:33.625Z,11.83
2019-01-10T12:54:37.670Z,8.97
2019-01-10T12:59:42.048Z,7.40
2019-01-10T13:04:46.435Z,10.13
2019-01-10T13:09:51.037Z,10.47
2019-01-10T13:14:56.559Z,11.60
2019-01-10T13:20:00.606Z,13.32
2019-01-10T13:25:07.056Z,16.90
2019-01-10T13:30:17.356Z,16.43
2019-01-10T13:35:21.465Z,14.23
2019-01-10T13:40:25.778Z,15.30
2019-01-10T13:45:30.112Z,14.43
2019-01-10T13:50:34.196Z,14.93
2019-01-10T13:55:38.671Z,18.97
2019-01-10T14:00:42.762Z,16.13
2019-01-10T14:05:46.815Z,18.63
2019-01-10T14:10:51.142Z,12.93
2019-01-10T14:15:55.574Z,16.20
2019-01-10T14:20:59.616Z,13.40
2019-01-10T14:26:04.020Z,13.40
2019-01-10T14:31:08.569Z,14.50
2019-01-10T14:36:12.726Z,13.83
2019-01-10T14:41:16.778Z,14.15
2019-01-10T14:46:21.111Z,17.00
2019-01-10T14:51:25.562Z,18.20
2019-01-10T14:56:30.027Z,16.50
2019-01-10T15:01:34.373Z,17.80
2019-01-10T15:06:38.755Z,14.93
2019-01-10T15:11:43.407Z,18.33
2019-01-10T15:16:48.050Z,18.47
2019-01-10T15:21:52.142Z,17.67
2019-01-10T15:26:56.450Z,17.30
2019-01-10T15:32:00.809Z,17.23
2019-01-10T15:37:04.875Z,18.13
2019-01-10T15:42:09.170Z,19.77
2019-01-10T15:47:16.751Z,21.03
2019-01-10T15:52:19.590Z,16.07
2019-01-10T15:57:23.943Z,15.63
2019-01-10T16:02:28.348Z,18.13
2019-01-10T16:07:32.452Z,16.80
2019-01-10T16:12:37.085Z,17.27
2019-01-10T16:17:41.943Z,21.57
2019-01-10T16:22:46.985Z,20.02
2019-01-10T16:27:51.319Z,20.63
2019-01-10T16:32:55.398Z,21.97
2019-01-10T16:37:59.789Z,21.90
2019-01-10T16:43:03.979Z,17.80
2019-01-10T16:48:08.061Z,18.53
2019-01-10T16:53:12.452Z,21.97
2019-01-10T16:58:16.887Z,19.17
2019-01-10T17:03:21.320Z,21.03
2019-01-10T17:08:25.469Z,21.50
2019-01-10T17:13:29.874Z,20.43
2019-01-10T17:18:34.317Z,19.03
2019-01-10T17:23:38.770Z,21.27
2019-01-10T17:28:42.857Z,20.30
2019-01-10T17:33:47.905Z,16.40
2019-01-10T17:38:51.985Z,17.63
2019-01-10T17:43:56.374Z,24.30
2019-01-10T17:49:00.521Z,17.73
2019-01-10T17:54:04.968Z,23.27
2019-01-10T17:59:11.849Z,22.53
2019-01-10T18:04:15.986Z,21.23
2019-01-10T18:09:20.343Z,19.97
2019-01-10T18:14:25.049Z,20.73
2019-01-10T18:19:29.611Z,20.30
2019-01-10T18:24:33.746Z,20.07
2019-01-10T18:29:37.840Z,17.98
2019-01-10T18:34:43.360Z,20.13
2019-01-10T18:39:47.966Z,18.63
2019-01-10T18:44:52.397Z,19.80
2019-01-10T18:49:56.814Z,22.90
2019-01-10T18:55:01.227Z,23.73
2019-01-10T19:00:16.271Z,29.50
2019-01-10T19:05:20.687Z,25.20
2019-01-10T19:10:24.837Z,25.97
2019-01-10T19:15:29.112Z,26.07
2019-01-10T19:20:33.214Z,26.40
2019-01-10T19:25:37.330Z,24.67
2019-01-10T19:30:41.744Z,28.97
2019-01-10T19:35:45.926Z,24.27
2019-01-10T19:40:50.295Z,19.50
2019-01-10T19:45:54.711Z,20.90
2019-01-10T19:50:59.221Z,17.27
2019-01-10T19:56:03.665Z,19.30
2019-01-10T20:01:08.321Z,19.47
2019-01-10T20:06:12.481Z,17.83
2019-01-10T20:11:16.891Z,19.73
2019-01-10T20:16:21.362Z,18.17
2019-01-10T20:21:26.000Z,16.50
2019-01-10T20:26:30.550Z,20.83
2019-01-10T20:31:34.677Z,17.43
2019-01-10T20:36:38.802Z,20.23
2019-01-10T20:41:43.154Z,17.10
2019-01-10T20:46:47.586Z,19.13
2019-01-10T20:51:51.666Z,20.90
2019-01-10T20:56:56.020Z,16.17
2019-01-10T21:02:00.419Z,16.13
2019-01-10T21:07:05.656Z,24.20
2019-01-10T21:12:10.092Z,17.57
2019-01-10T21:17:14.549Z,19.87
2019-01-10T21:22:18.930Z,18.83
2019-01-10T21:27:23.334Z,16.20
2019-01-10T21:32:27.725Z,19.77
2019-01-10T21:37:31.838Z,18.10
2019-01-10T21:42:36.178Z,17.97
2019-01-10T21:47:40.338Z,19.80
2019-01-10T21:52:45.098Z,15.83
2019-01-10T21:57:49.154Z,19.73
2019-01-10T22:02:54.139Z,20.83
2019-01-10T22:07:58.516Z,19.50
2019-01-10T22:13:02.896Z,21.97
2019-01-10T22:18:07.544Z,17.30
2019-01-10T22:23:11.936Z,19.70
2019-01-10T22:28:16.637Z,21.33
2019-01-10T22:33:21.073Z,21.80
2019-01-10T22:38:26.615Z,20.63
2019-01-10T22:43:30.978Z,21.87
2019-01-10T22:48:35.268Z,20.73
2019-01-10T22:53:39.317Z,22.13
2019-01-10T22:58:43.894Z,20.67
2019-01-10T23:03:48.277Z,16.43
2019-01-10T23:08:52.332Z,21.10
2019-01-10T23:13:57.986Z,22.33
2019-01-10T23:19:02.951Z,17.75
2019-01-10T23:24:07.789Z,19.30
2019-01-10T23:29:12.142Z,16.20
2019-01-10T23:34:16.588Z,17.97
2019-01-10T23:39:21.037Z,22.73
2019-01-10T23:44:25.130Z,22.27
2019-01-10T23:49:29.438Z,26.10
2019-01-10T23:54:33.484Z,20.30
2019-01-10T23:59:37.531Z,19.10
